createdAt,value
2023-02-25T00:02:18.980Z,2.47
2023-02-25T00:05:21.953Z,2.65
2023-02-25T00:08:24.945Z,2.42
2023-02-25T00:11:30.264Z,2.58
2023-02-25T00:14:33.175Z,2.60
2023-02-25T00:17:38.070Z,2.47
2023-02-25T00:20:41.345Z,3.25
2023-02-25T00:23:46.049Z,2.20
2023-02-25T00:26:50.391Z,2.55
2023-02-25T00:29:53.904Z,2.53
2023-02-25T00:32:56.887Z,2.13
2023-02-25T00:36:00.315Z,2.47
2023-02-25T00:39:03.450Z,1.88
2023-02-25T00:42:07.801Z,2.20
2023-02-25T00:45:12.603Z,2.25
2023-02-25T00:48:15.592Z,2.30
2023-02-25T00:51:21.331Z,1.80
2023-02-25T00:54:26.157Z,2.00
2023-02-25T00:57:30.508Z,2.47
2023-02-25T01:00:46.546Z,1.98
2023-02-25T01:03:55.638Z,2.58
2023-02-25T01:06:58.982Z,2.05
2023-02-25T01:10:02.676Z,2.05
2023-02-25T01:13:07.021Z,2.30
2023-02-25T01:16:15.379Z,1.80
2023-02-25T01:19:20.776Z,1.73
2023-02-25T01:22:24.270Z,2.05
2023-02-25T01:25:27.245Z,1.65
2023-02-25T01:28:31.736Z,3.25
2023-02-25T01:31:34.832Z,1.90
2023-02-25T01:34:39.998Z,1.83
2023-02-25T01:37:46.830Z,1.77
2023-02-25T01:40:57.941Z,2.13
2023-02-25T01:44:09.069Z,1.98
2023-02-25T01:47:21.139Z,2.00
2023-02-25T01:50:28.354Z,1.38
2023-02-25T01:53:38.363Z,1.48
2023-02-25T01:56:45.855Z,1.70
2023-02-25T01:59:52.566Z,2.05
2023-02-25T02:02:57.014Z,1.90
2023-02-25T02:06:07.017Z,1.80
2023-02-25T02:09:13.331Z,1.70
2023-02-25T02:12:16.903Z,1.77
2023-02-25T02:15:21.268Z,1.85
2023-02-25T02:18:25.700Z,1.70
2023-02-25T02:21:56.342Z,1.60
2023-02-25T02:25:31.981Z,1.77
2023-02-25T02:29:04.615Z,1.52
2023-02-25T02:32:17.409Z,1.58
2023-02-25T02:35:24.871Z,1.75
2023-02-25T02:38:36.758Z,1.60
2023-02-25T02:41:48.092Z,1.65
2023-02-25T02:44:57.791Z,1.60
2023-02-25T02:48:06.770Z,1.50
2023-02-25T02:51:16.425Z,1.55
2023-02-25T02:54:20.546Z,1.67
2023-02-25T02:57:27.993Z,1.85
2023-02-25T03:00:37.673Z,1.52
2023-02-25T03:03:47.028Z,1.77
2023-02-25T03:06:54.246Z,1.60
2023-02-25T03:10:01.954Z,1.52
2023-02-25T03:13:08.122Z,1.65
2023-02-25T03:16:18.126Z,1.55
2023-02-25T03:19:26.785Z,1.40
2023-02-25T03:22:33.126Z,1.30
2023-02-25T03:25:47.162Z,1.67
2023-02-25T03:28:51.536Z,1.50
2023-02-25T03:31:59.230Z,1.60
2023-02-25T03:35:09.241Z,1.50
2023-02-25T03:38:17.731Z,1.40
2023-02-25T03:41:22.978Z,1.83
2023-02-25T03:44:32.683Z,1.30
2023-02-25T03:47:38.423Z,1.38
2023-02-25T03:50:48.108Z,1.20
2023-02-25T03:53:52.254Z,1.50
2023-02-25T03:56:58.577Z,1.38
2023-02-25T04:00:01.801Z,1.27
2023-02-25T04:03:05.916Z,1.60
2023-02-25T04:06:12.019Z,1.55
2023-02-25T04:09:15.084Z,1.20
2023-02-25T04:12:18.562Z,1.20
2023-02-25T04:15:21.834Z,1.30
2023-02-25T04:18:26.660Z,1.40
2023-02-25T04:21:33.497Z,1.20
2023-02-25T04:24:36.489Z,1.30
2023-02-25T04:27:40.075Z,1.50
2023-02-25T04:30:43.100Z,1.50
2023-02-25T04:33:49.315Z,1.63
2023-02-25T04:36:53.836Z,1.40
2023-02-25T04:39:56.881Z,1.42
2023-02-25T04:42:59.913Z,1.80
2023-02-25T04:46:03.017Z,1.35
2023-02-25T04:49:06.645Z,1.15
2023-02-25T04:52:11.037Z,1.60
2023-02-25T04:55:14.026Z,1.15
2023-02-25T04:58:17.036Z,1.30
2023-02-25T05:01:20.062Z,1.10
2023-02-25T05:04:23.118Z,1.17
2023-02-25T05:07:27.562Z,1.23
2023-02-25T05:10:30.494Z,1.20
2023-02-25T05:13:34.061Z,1.10
2023-02-25T05:16:37.163Z,1.08
2023-02-25T05:19:40.102Z,1.20
2023-02-25T05:22:44.861Z,1.17
2023-02-25T05:25:47.834Z,1.10
2023-02-25T05:28:51.419Z,1.30
2023-02-25T05:31:55.141Z,1.55
2023-02-25T05:34:58.632Z,1.10
2023-02-25T05:38:02.966Z,1.00
2023-02-25T05:41:07.190Z,1.08
2023-02-25T05:44:11.474Z,1.17
2023-02-25T05:47:15.409Z,1.33
2023-02-25T05:50:18.374Z,1.17
2023-02-25T05:53:22.681Z,1.30
2023-02-25T05:56:30.244Z,0.93
2023-02-25T05:59:36.628Z,1.10
2023-02-25T06:02:39.664Z,1.08
2023-02-25T06:05:43.353Z,1.10
2023-02-25T06:08:49.406Z,1.00
2023-02-25T06:11:52.355Z,1.08
2023-02-25T06:14:55.531Z,1.20
2023-02-25T06:17:58.534Z,0.95
2023-02-25T06:21:05.428Z,0.95
2023-02-25T06:24:11.409Z,1.08
2023-02-25T06:27:14.993Z,1.10
2023-02-25T06:30:18.581Z,0.90
2023-02-25T06:33:21.730Z,0.90
2023-02-25T06:36:25.195Z,0.90
2023-02-25T06:39:29.745Z,1.10
2023-02-25T06:42:32.824Z,1.10
2023-02-25T06:45:37.066Z,1.10
2023-02-25T06:48:40.499Z,0.95
2023-02-25T06:51:43.457Z,0.98
2023-02-25T06:54:47.861Z,1.00
2023-02-25T06:57:50.873Z,1.00
2023-02-25T07:00:54.050Z,1.10
2023-02-25T07:03:57.083Z,1.10
2023-02-25T07:07:00.198Z,0.90
2023-02-25T07:10:04.776Z,1.02
2023-02-25T07:13:08.190Z,1.10
2023-02-25T07:16:11.480Z,1.00
2023-02-25T07:19:16.534Z,0.70
2023-02-25T07:22:20.463Z,0.90
2023-02-25T07:25:25.660Z,0.70
2023-02-25T07:28:28.695Z,0.80
2023-02-25T07:31:31.951Z,0.70
2023-02-25T07:34:35.009Z,0.98
2023-02-25T07:37:38.661Z,0.70
2023-02-25T07:40:43.074Z,0.80
2023-02-25T07:43:46.645Z,0.90
2023-02-25T07:46:49.670Z,0.80
2023-02-25T07:49:52.737Z,0.80
2023-02-25T07:52:55.780Z,0.98
2023-02-25T07:56:00.305Z,0.90
2023-02-25T07:59:03.309Z,0.90
2023-02-25T08:02:10.262Z,1.33
2023-02-25T08:05:13.677Z,1.20
2023-02-25T08:08:16.744Z,1.00
2023-02-25T08:11:23.216Z,1.10
2023-02-25T08:14:26.389Z,1.13
2023-02-25T08:17:32.486Z,1.17
2023-02-25T08:20:35.546Z,1.05
2023-02-25T08:23:38.998Z,1.10
2023-02-25T08:26:44.582Z,1.73
2023-02-25T08:29:47.627Z,1.20
2023-02-25T08:32:50.845Z,1.67
2023-02-25T08:35:53.913Z,1.20
2023-02-25T08:38:58.422Z,1.20
2023-02-25T08:42:02.800Z,1.40
2023-02-25T08:45:06.741Z,1.50
2023-02-25T08:48:09.860Z,1.70
2023-02-25T08:51:14.907Z,1.60
2023-02-25T08:54:18.189Z,1.83
2023-02-25T08:57:22.592Z,1.60
2023-02-25T09:00:25.900Z,2.10
2023-02-25T09:03:29.151Z,2.00
2023-02-25T09:06:33.982Z,1.83
2023-02-25T09:09:37.073Z,2.00
2023-02-25T09:12:43.078Z,2.60
2023-02-25T09:15:46.105Z,2.25
2023-02-25T09:18:51.344Z,2.40
2023-02-25T09:21:54.369Z,3.75
2023-02-25T09:24:57.426Z,2.40
2023-02-25T09:28:02.019Z,2.38
2023-02-25T09:31:05.520Z,2.20
2023-02-25T09:34:10.369Z,1.88
2023-02-25T09:37:14.883Z,1.15
2023-02-25T09:40:22.794Z,1.17
2023-02-25T09:43:31.241Z,1.00
2023-02-25T09:46:41.325Z,1.20
2023-02-25T09:49:49.715Z,0.90
2023-02-25T09:53:02.403Z,0.60
2023-02-25T09:56:07.614Z,1.20
2023-02-25T09:59:16.433Z,0.75
2023-02-25T10:02:33.967Z,0.90
2023-02-25T10:05:44.241Z,0.73
2023-02-25T10:08:54.914Z,0.98
2023-02-25T10:12:05.520Z,0.98
2023-02-25T10:15:28.740Z,0.90
2023-02-25T10:18:46.198Z,1.25
2023-02-25T10:22:14.608Z,1.00
2023-02-25T10:25:21.405Z,2.28
2023-02-25T10:28:25.472Z,1.48
2023-02-25T10:31:32.555Z,1.38
2023-02-25T10:34:39.204Z,1.50
2023-02-25T10:37:42.213Z,2.00
2023-02-25T10:40:45.193Z,2.40
2023-02-25T10:43:48.249Z,2.60
2023-02-25T10:46:56.664Z,2.42
2023-02-25T10:50:15.281Z,2.45
2023-02-25T10:53:19.925Z,2.85
2023-02-25T10:56:23.792Z,3.10
2023-02-25T10:59:33.435Z,3.00
2023-02-25T11:02:42.652Z,3.20
2023-02-25T11:05:45.789Z,3.65
2023-02-25T11:08:48.904Z,3.78
2023-02-25T11:11:55.386Z,3.47
2023-02-25T11:14:58.416Z,4.15
2023-02-25T11:18:07.999Z,4.05
2023-02-25T11:21:14.457Z,4.22
2023-02-25T11:24:20.629Z,4.25
2023-02-25T11:27:33.322Z,5.20
2023-02-25T11:30:40.128Z,4.22
2023-02-25T11:33:50.783Z,5.78
2023-02-25T11:36:54.251Z,6.45
2023-02-25T11:39:57.585Z,6.93
2023-02-25T11:43:17.163Z,8.68
2023-02-25T11:46:24.123Z,8.68
2023-02-25T11:49:37.817Z,8.57
2023-02-25T11:52:45.563Z,9.95
2023-02-25T11:56:02.088Z,10.02
2023-02-25T11:59:22.229Z,10.55
2023-02-25T12:02:33.914Z,10.50
2023-02-25T12:05:56.157Z,10.73
2023-02-25T12:09:31.720Z,10.05
2023-02-25T12:13:13.736Z,9.55
2023-02-25T12:16:55.762Z,10.32
2023-02-25T12:20:31.237Z,10.23
2023-02-25T12:24:12.342Z,10.32
2023-02-25T12:27:43.390Z,8.80
2023-02-25T12:31:32.835Z,8.63
2023-02-25T12:35:07.189Z,8.90
2023-02-25T12:39:06.986Z,8.15
2023-02-25T12:42:28.725Z,8.40
2023-02-25T12:45:48.555Z,8.43
2023-02-25T12:49:12.144Z,9.00
2023-02-25T12:52:35.323Z,8.10
2023-02-25T12:56:30.686Z,8.77
2023-02-25T12:59:49.726Z,8.50
2023-02-25T13:03:07.815Z,7.45
2023-02-25T13:06:43.075Z,9.18
2023-02-25T13:10:02.224Z,7.20
2023-02-25T13:13:25.273Z,7.55
2023-02-25T13:16:50.598Z,7.65
2023-02-25T13:20:20.890Z,8.30
2023-02-25T13:23:47.520Z,7.95
2023-02-25T13:27:00.590Z,7.63
2023-02-25T13:30:31.053Z,7.85
2023-02-25T13:34:03.667Z,7.88
2023-02-25T13:37:35.426Z,6.80
2023-02-25T13:40:51.022Z,7.00
2023-02-25T13:44:18.262Z,7.13
2023-02-25T13:47:46.702Z,7.07
2023-02-25T13:51:11.510Z,6.90
2023-02-25T13:54:41.386Z,7.68
2023-02-25T13:58:01.715Z,6.38
2023-02-25T14:01:23.819Z,7.18
2023-02-25T14:05:05.448Z,7.40
2023-02-25T14:08:25.809Z,6.75
2023-02-25T14:11:44.674Z,6.97
2023-02-25T14:15:09.334Z,7.65
2023-02-25T14:18:45.573Z,7.07
2023-02-25T14:22:04.902Z,7.45
2023-02-25T14:25:21.733Z,7.55
2023-02-25T14:28:51.140Z,8.15
2023-02-25T14:32:25.499Z,7.50
2023-02-25T14:35:46.591Z,8.57
2023-02-25T14:39:07.767Z,7.25
2023-02-25T14:42:29.348Z,7.30
2023-02-25T14:45:38.976Z,7.50
2023-02-25T14:48:48.537Z,8.02
2023-02-25T14:52:21.865Z,7.60
2023-02-25T14:55:42.094Z,8.60
2023-02-25T14:59:14.343Z,8.02
2023-02-25T15:02:45.283Z,8.55
2023-02-25T15:06:14.644Z,8.70
2023-02-25T15:09:34.624Z,9.80
2023-02-25T15:12:57.124Z,9.45
2023-02-25T15:16:25.179Z,10.07
2023-02-25T15:19:58.369Z,10.82
2023-02-25T15:23:11.814Z,12.25
2023-02-25T15:26:24.735Z,11.90
2023-02-25T15:29:51.641Z,12.82
2023-02-25T15:33:07.625Z,13.40
2023-02-25T15:36:28.841Z,15.15
2023-02-25T15:39:50.991Z,14.80
2023-02-25T15:42:55.914Z,15.02
2023-02-25T15:46:38.721Z,14.27
2023-02-25T15:49:47.286Z,15.20
2023-02-25T15:52:56.561Z,15.30
2023-02-25T15:56:29.372Z,14.95
2023-02-25T15:59:47.002Z,15.18
2023-02-25T16:02:54.425Z,14.23
2023-02-25T16:06:02.642Z,15.40
2023-02-25T16:09:09.085Z,15.25
2023-02-25T16:12:15.506Z,15.73
2023-02-25T16:15:27.215Z,15.43
2023-02-25T16:18:35.356Z,15.30
2023-02-25T16:21:44.202Z,15.68
2023-02-25T16:24:50.568Z,15.20
2023-02-25T16:28:02.464Z,15.13
2023-02-25T16:31:12.512Z,15.68
2023-02-25T16:34:22.826Z,15.75
2023-02-25T16:37:37.226Z,14.93
2023-02-25T16:40:42.644Z,15.20
2023-02-25T16:43:46.798Z,14.07
2023-02-25T16:46:52.551Z,15.15
2023-02-25T16:49:57.811Z,14.60
2023-02-25T16:53:04.938Z,14.43
2023-02-25T16:56:20.060Z,14.30
2023-02-25T16:59:24.503Z,13.63
2023-02-25T17:02:27.490Z,14.38
2023-02-25T17:05:33.437Z,12.55
2023-02-25T17:08:39.743Z,13.45
2023-02-25T17:11:55.737Z,12.30
2023-02-25T17:15:00.840Z,9.07
2023-02-25T17:18:09.995Z,6.90
2023-02-25T17:21:20.777Z,6.40
2023-02-25T17:24:28.587Z,6.60
2023-02-25T17:27:31.915Z,6.35
2023-02-25T17:30:37.756Z,6.68
2023-02-25T17:33:49.264Z,6.75
2023-02-25T17:36:53.295Z,6.60
2023-02-25T17:39:58.482Z,6.05
2023-02-25T17:43:23.607Z,6.88
2023-02-25T17:46:36.255Z,6.70
2023-02-25T17:49:40.089Z,6.22
2023-02-25T17:52:49.243Z,6.80
2023-02-25T17:55:53.893Z,7.75
2023-02-25T17:59:01.557Z,7.45
2023-02-25T18:02:25.014Z,7.20
2023-02-25T18:05:28.428Z,7.38
2023-02-25T18:08:31.860Z,7.85
2023-02-25T18:11:38.774Z,7.43
2023-02-25T18:14:45.728Z,7.95
2023-02-25T18:17:50.631Z,7.85
2023-02-25T18:20:59.624Z,7.80
2023-02-25T18:24:02.890Z,7.90
2023-02-25T18:27:30.274Z,8.57
2023-02-25T18:30:34.209Z,8.90
2023-02-25T18:33:37.544Z,9.20
2023-02-25T18:36:40.636Z,8.40
2023-02-25T18:39:43.920Z,9.35
2023-02-25T18:42:48.338Z,9.45
2023-02-25T18:45:51.369Z,9.75
2023-02-25T18:48:54.437Z,9.63
2023-02-25T18:51:57.534Z,10.20
2023-02-25T18:55:00.498Z,10.77
2023-02-25T18:58:05.005Z,11.45
2023-02-25T19:01:08.487Z,11.70
2023-02-25T19:04:17.341Z,11.02
2023-02-25T19:07:20.400Z,12.75
2023-02-25T19:10:26.063Z,11.82
2023-02-25T19:13:34.591Z,12.82
2023-02-25T19:16:38.092Z,12.52
2023-02-25T19:19:41.074Z,13.40
2023-02-25T19:22:44.506Z,13.52
2023-02-25T19:25:50.566Z,13.05
2023-02-25T19:28:55.417Z,13.20
2023-02-25T19:31:58.535Z,13.63
2023-02-25T19:35:04.382Z,14.18
2023-02-25T19:38:09.246Z,13.90
2023-02-25T19:41:14.181Z,13.80
2023-02-25T19:44:18.739Z,14.13
2023-02-25T19:47:22.134Z,13.98
2023-02-25T19:50:27.016Z,14.20
2023-02-25T19:53:30.028Z,14.90
2023-02-25T19:56:33.091Z,14.77
2023-02-25T19:59:37.510Z,14.98
2023-02-25T20:02:40.927Z,15.20
2023-02-25T20:05:44.736Z,15.07
2023-02-25T20:08:52.452Z,14.60
2023-02-25T20:11:55.481Z,14.95
2023-02-25T20:14:59.905Z,14.65
2023-02-25T20:18:02.852Z,16.10
2023-02-25T20:21:06.291Z,15.07
2023-02-25T20:24:09.702Z,16.23
2023-02-25T20:27:12.896Z,15.38
2023-02-25T20:30:18.755Z,16.02
2023-02-25T20:33:22.450Z,15.05
2023-02-25T20:36:28.189Z,15.48
2023-02-25T20:39:48.049Z,14.63
2023-02-25T20:42:51.232Z,14.57
2023-02-25T20:45:56.107Z,13.80
2023-02-25T20:48:59.318Z,13.88
2023-02-25T20:52:02.745Z,14.18
2023-02-25T20:55:06.930Z,13.25
2023-02-25T20:58:10.894Z,13.88
2023-02-25T21:01:15.462Z,13.20
2023-02-25T21:04:18.494Z,13.35
2023-02-25T21:07:21.791Z,12.82
2023-02-25T21:10:24.945Z,12.57
2023-02-25T21:13:28.190Z,13.82
2023-02-25T21:16:32.691Z,13.23
2023-02-25T21:19:36.220Z,12.73
2023-02-25T21:22:39.285Z,12.40
2023-02-25T21:25:42.293Z,12.80
2023-02-25T21:28:46.389Z,13.38
2023-02-25T21:31:50.861Z,12.65
2023-02-25T21:34:53.903Z,12.23
2023-02-25T21:37:56.946Z,7.70
2023-02-25T21:41:06.518Z,7.88
2023-02-25T21:44:09.795Z,6.63
2023-02-25T21:47:14.497Z,5.32
2023-02-25T21:50:18.138Z,6.28
2023-02-25T21:53:23.405Z,5.25
2023-02-25T21:56:27.366Z,5.80
2023-02-25T21:59:30.505Z,6.70
2023-02-25T22:02:36.212Z,5.43
2023-02-25T22:05:39.664Z,5.47
2023-02-25T22:08:44.669Z,5.40
2023-02-25T22:11:47.711Z,5.35
2023-02-25T22:14:50.743Z,5.85
2023-02-25T22:17:56.060Z,5.70
2023-02-25T22:21:10.793Z,5.50
2023-02-25T22:24:13.859Z,4.82
2023-02-25T22:27:16.925Z,4.95
2023-02-25T22:30:20.761Z,4.93
2023-02-25T22:33:25.278Z,4.72
2023-02-25T22:36:28.446Z,5.10
2023-02-25T22:39:31.478Z,4.50
2023-02-25T22:42:34.526Z,5.15
2023-02-25T22:45:37.535Z,4.80
2023-02-25T22:48:44.099Z,4.47
2023-02-25T22:51:48.172Z,4.90
2023-02-25T22:54:51.197Z,4.85
2023-02-25T22:57:54.142Z,4.45
2023-02-25T23:00:57.122Z,4.03
2023-02-25T23:04:01.830Z,4.18
2023-02-25T23:07:05.084Z,4.45
2023-02-25T23:10:09.494Z,4.20
2023-02-25T23:13:12.862Z,4.55
2023-02-25T23:16:17.227Z,4.50
2023-02-25T23:19:21.730Z,4.35
2023-02-25T23:22:27.061Z,4.40
2023-02-25T23:25:30.908Z,4.00
2023-02-25T23:28:33.986Z,4.30
2023-02-25T23:31:38.611Z,4.45
2023-02-25T23:34:42.969Z,4.50
2023-02-25T23:37:47.049Z,4.07
2023-02-25T23:40:50.249Z,4.22
2023-02-25T23:43:53.879Z,4.40
2023-02-25T23:46:57.035Z,3.88
2023-02-25T23:50:01.493Z,3.58
2023-02-25T23:53:04.428Z,4.00
2023-02-25T23:56:10.128Z,4.35
2023-02-25T23:59:13.648Z,4.18
